sensor_id;sensor_type;location;lat;lon;timestamp;P1;durP1;ratioP1;P2;durP2;ratioP2
51616;SDS011;37697;52.588;13.394;2022-10-30T00:00:14;19.87;;;16.63;;
51616;SDS011;37697;52.588;13.394;2022-10-30T00:05:17;20.40;;;16.95;;
51616;SDS011;37697;52.588;13.394;2022-10-30T00:10:20;22.82;;;17.40;;
51616;SDS011;37697;52.588;13.394;2022-10-30T00:15:20;23.63;;;17.53;;
51616;SDS011;37697;52.588;13.394;2022-10-30T00:20:21;22.35;;;18.12;;
51616;SDS011;37697;52.588;13.394;2022-10-30T00:30:22;19.30;;;16.48;;
51616;SDS011;37697;52.588;13.394;2022-10-30T00:35:23;22.10;;;16.80;;
51616;SDS011;37697;52.588;13.394;2022-10-30T00:40:24;24.90;;;17.15;;
51616;SDS011;37697;52.588;13.394;2022-10-30T00:45:24;22.07;;;17.13;;
51616;SDS011;37697;52.588;13.394;2022-10-30T00:50:29;21.07;;;16.57;;
51616;SDS011;37697;52.588;13.394;2022-10-30T00:55:38;20.08;;;16.07;;
51616;SDS011;37697;52.588;13.394;2022-10-30T01:00:44;24.15;;;16.50;;
51616;SDS011;37697;52.588;13.394;2022-10-30T01:05:49;21.25;;;15.43;;
51616;SDS011;37697;52.588;13.394;2022-10-30T01:10:53;25.37;;;15.65;;
51616;SDS011;37697;52.588;13.394;2022-10-30T01:21:32;20.40;;;15.70;;
51616;SDS011;37697;52.588;13.394;2022-10-30T01:26:46;18.67;;;15.72;;
51616;SDS011;37697;52.588;13.394;2022-10-30T01:32:14;22.95;;;16.50;;
51616;SDS011;37697;52.588;13.394;2022-10-30T01:42:54;18.50;;;14.65;;
51616;SDS011;37697;52.588;13.394;2022-10-30T01:48:02;17.95;;;14.58;;
51616;SDS011;37697;52.588;13.394;2022-10-30T01:58:29;18.20;;;14.47;;
51616;SDS011;37697;52.588;13.394;2022-10-30T02:03:48;17.80;;;14.35;;
51616;SDS011;37697;52.588;13.394;2022-10-30T02:08:50;19.80;;;14.15;;
51616;SDS011;37697;52.588;13.394;2022-10-30T02:13:56;17.07;;;14.50;;
51616;SDS011;37697;52.588;13.394;2022-10-30T02:19:00;15.40;;;13.30;;
51616;SDS011;37697;52.588;13.394;2022-10-30T02:24:02;16.40;;;13.83;;
51616;SDS011;37697;52.588;13.394;2022-10-30T02:29:03;16.37;;;13.32;;
51616;SDS011;37697;52.588;13.394;2022-10-30T02:39:05;17.70;;;13.00;;
51616;SDS011;37697;52.588;13.394;2022-10-30T02:44:06;14.95;;;12.73;;
51616;SDS011;37697;52.588;13.394;2022-10-30T02:49:07;15.53;;;12.13;;
51616;SDS011;37697;52.588;13.394;2022-10-30T02:54:07;18.95;;;12.85;;
51616;SDS011;37697;52.588;13.394;2022-10-30T02:59:09;15.48;;;13.18;;
51616;SDS011;37697;52.588;13.394;2022-10-30T03:04:09;16.23;;;12.20;;
51616;SDS011;37697;52.588;13.394;2022-10-30T03:09:10;15.20;;;12.60;;
51616;SDS011;37697;52.588;13.394;2022-10-30T03:14:11;17.97;;;12.77;;
51616;SDS011;37697;52.588;13.394;2022-10-30T03:19:11;15.73;;;12.63;;
51616;SDS011;37697;52.588;13.394;2022-10-30T03:24:12;15.40;;;12.50;;
51616;SDS011;37697;52.588;13.394;2022-10-30T03:29:13;16.00;;;13.43;;
51616;SDS011;37697;52.588;13.394;2022-10-30T03:34:14;15.53;;;12.90;;
51616;SDS011;37697;52.588;13.394;2022-10-30T03:39:15;15.08;;;12.35;;
51616;SDS011;37697;52.588;13.394;2022-10-30T03:44:15;15.10;;;12.73;;
51616;SDS011;37697;52.588;13.394;2022-10-30T03:49:16;20.73;;;13.87;;
51616;SDS011;37697;52.588;13.394;2022-10-30T03:54:17;19.93;;;15.13;;
51616;SDS011;37697;52.588;13.394;2022-10-30T03:59:17;18.45;;;12.68;;
51616;SDS011;37697;52.588;13.394;2022-10-30T04:04:18;16.60;;;12.37;;
51616;SDS011;37697;52.588;13.394;2022-10-30T04:09:19;19.40;;;15.13;;
51616;SDS011;37697;52.588;13.394;2022-10-30T04:14:19;18.80;;;12.83;;
51616;SDS011;37697;52.588;13.394;2022-10-30T04:19:20;17.07;;;11.20;;
51616;SDS011;37697;52.588;13.394;2022-10-30T04:24:21;16.77;;;12.43;;
51616;SDS011;37697;52.588;13.394;2022-10-30T04:29:22;16.12;;;13.10;;
51616;SDS011;37697;52.588;13.394;2022-10-30T04:34:23;15.75;;;12.23;;
51616;SDS011;37697;52.588;13.394;2022-10-30T04:39:23;21.67;;;14.27;;
51616;SDS011;37697;52.588;13.394;2022-10-30T04:44:24;16.80;;;12.13;;
51616;SDS011;37697;52.588;13.394;2022-10-30T04:49:25;18.30;;;13.58;;
51616;SDS011;37697;52.588;13.394;2022-10-30T04:54:26;21.17;;;14.23;;
51616;SDS011;37697;52.588;13.394;2022-10-30T04:59:27;16.12;;;12.53;;
51616;SDS011;37697;52.588;13.394;2022-10-30T05:04:28;17.07;;;13.57;;
51616;SDS011;37697;52.588;13.394;2022-10-30T05:09:29;15.10;;;12.60;;
51616;SDS011;37697;52.588;13.394;2022-10-30T05:14:31;15.53;;;12.05;;
51616;SDS011;37697;52.588;13.394;2022-10-30T05:19:33;13.58;;;12.13;;
51616;SDS011;37697;52.588;13.394;2022-10-30T05:24:33;15.48;;;12.82;;
51616;SDS011;37697;52.588;13.394;2022-10-30T05:29:34;15.27;;;11.57;;
51616;SDS011;37697;52.588;13.394;2022-10-30T05:34:35;16.60;;;13.20;;
51616;SDS011;37697;52.588;13.394;2022-10-30T05:39:35;18.32;;;13.30;;
51616;SDS011;37697;52.588;13.394;2022-10-30T05:44:36;17.77;;;12.93;;
51616;SDS011;37697;52.588;13.394;2022-10-30T05:49:37;18.87;;;13.93;;
51616;SDS011;37697;52.588;13.394;2022-10-30T05:54:37;21.33;;;14.43;;
51616;SDS011;37697;52.588;13.394;2022-10-30T05:59:38;19.87;;;13.05;;
51616;SDS011;37697;52.588;13.394;2022-10-30T06:04:39;19.90;;;13.67;;
51616;SDS011;37697;52.588;13.394;2022-10-30T06:09:39;19.37;;;12.23;;
51616;SDS011;37697;52.588;13.394;2022-10-30T06:19:41;14.73;;;10.70;;
51616;SDS011;37697;52.588;13.394;2022-10-30T06:24:42;17.63;;;12.70;;
51616;SDS011;37697;52.588;13.394;2022-10-30T06:29:42;13.87;;;11.10;;
51616;SDS011;37697;52.588;13.394;2022-10-30T06:34:43;17.15;;;11.88;;
51616;SDS011;37697;52.588;13.394;2022-10-30T06:39:44;18.53;;;12.47;;
51616;SDS011;37697;52.588;13.394;2022-10-30T06:44:44;18.47;;;13.87;;
51616;SDS011;37697;52.588;13.394;2022-10-30T06:54:46;16.82;;;12.30;;
51616;SDS011;37697;52.588;13.394;2022-10-30T06:59:46;15.73;;;11.60;;
51616;SDS011;37697;52.588;13.394;2022-10-30T07:04:47;15.83;;;12.50;;
51616;SDS011;37697;52.588;13.394;2022-10-30T07:09:48;19.98;;;13.40;;
51616;SDS011;37697;52.588;13.394;2022-10-30T07:19:50;18.35;;;13.18;;
51616;SDS011;37697;52.588;13.394;2022-10-30T07:24:51;18.47;;;13.83;;
51616;SDS011;37697;52.588;13.394;2022-10-30T07:29:51;19.70;;;13.03;;
51616;SDS011;37697;52.588;13.394;2022-10-30T07:34:52;19.33;;;12.70;;
51616;SDS011;37697;52.588;13.394;2022-10-30T07:39:52;16.40;;;13.37;;
51616;SDS011;37697;52.588;13.394;2022-10-30T07:44:53;20.23;;;14.00;;
51616;SDS011;37697;52.588;13.394;2022-10-30T07:54:54;14.70;;;11.97;;
51616;SDS011;37697;52.588;13.394;2022-10-30T07:59:56;15.48;;;11.85;;
51616;SDS011;37697;52.588;13.394;2022-10-30T08:04:56;21.03;;;12.50;;
51616;SDS011;37697;52.588;13.394;2022-10-30T08:09:57;17.00;;;11.50;;
51616;SDS011;37697;52.588;13.394;2022-10-30T08:20:00;14.57;;;10.30;;
51616;SDS011;37697;52.588;13.394;2022-10-30T08:25:01;14.97;;;9.13;;
51616;SDS011;37697;52.588;13.394;2022-10-30T08:30:02;15.08;;;9.18;;
51616;SDS011;37697;52.588;13.394;2022-10-30T08:35:04;15.50;;;8.43;;
51616;SDS011;37697;52.588;13.394;2022-10-30T08:40:06;15.65;;;9.05;;
51616;SDS011;37697;52.588;13.394;2022-10-30T08:45:09;16.48;;;10.00;;
51616;SDS011;37697;52.588;13.394;2022-10-30T08:55:10;13.60;;;9.40;;
51616;SDS011;37697;52.588;13.394;2022-10-30T09:05:12;15.37;;;8.37;;
51616;SDS011;37697;52.588;13.394;2022-10-30T09:10:13;18.02;;;8.58;;
51616;SDS011;37697;52.588;13.394;2022-10-30T09:15:14;16.37;;;6.97;;
51616;SDS011;37697;52.588;13.394;2022-10-30T09:20:16;18.82;;;7.78;;
51616;SDS011;37697;52.588;13.394;2022-10-30T09:25:16;14.53;;;6.60;;
51616;SDS011;37697;52.588;13.394;2022-10-30T09:30:18;11.55;;;6.30;;
51616;SDS011;37697;52.588;13.394;2022-10-30T09:40:33;11.80;;;7.07;;
51616;SDS011;37697;52.588;13.394;2022-10-30T09:57:11;14.38;;;6.08;;
51616;SDS011;37697;52.588;13.394;2022-10-30T10:02:57;11.97;;;5.97;;
51616;SDS011;37697;52.588;13.394;2022-10-30T10:08:03;11.25;;;5.67;;
51616;SDS011;37697;52.588;13.394;2022-10-30T10:13:55;13.35;;;5.58;;
51616;SDS011;37697;52.588;13.394;2022-10-30T10:18:32;13.50;;;6.25;;
51616;SDS011;37697;52.588;13.394;2022-10-30T10:23:46;11.73;;;5.90;;
51616;SDS011;37697;52.588;13.394;2022-10-30T10:29:32;13.48;;;5.60;;
51616;SDS011;37697;52.588;13.394;2022-10-30T10:34:19;8.25;;;4.80;;
51616;SDS011;37697;52.588;13.394;2022-10-30T10:39:38;10.98;;;5.67;;
51616;SDS011;37697;52.588;13.394;2022-10-30T10:44:48;10.98;;;5.10;;
51616;SDS011;37697;52.588;13.394;2022-10-30T10:50:20;10.58;;;5.10;;
51616;SDS011;37697;52.588;13.394;2022-10-30T10:55:26;9.33;;;4.70;;
51616;SDS011;37697;52.588;13.394;2022-10-30T11:00:30;10.05;;;4.70;;
51616;SDS011;37697;52.588;13.394;2022-10-30T11:05:50;12.50;;;5.20;;
51616;SDS011;37697;52.588;13.394;2022-10-30T11:10:55;8.18;;;4.28;;
51616;SDS011;37697;52.588;13.394;2022-10-30T11:16:03;9.28;;;4.47;;
51616;SDS011;37697;52.588;13.394;2022-10-30T11:21:24;14.03;;;4.37;;
51616;SDS011;37697;52.588;13.394;2022-10-30T11:26:26;11.90;;;5.25;;
51616;SDS011;37697;52.588;13.394;2022-10-30T11:31:32;11.95;;;4.58;;
51616;SDS011;37697;52.588;13.394;2022-10-30T11:36:37;15.63;;;6.12;;
51616;SDS011;37697;52.588;13.394;2022-10-30T11:41:37;9.48;;;4.30;;
51616;SDS011;37697;52.588;13.394;2022-10-30T11:46:38;11.57;;;4.90;;
51616;SDS011;37697;52.588;13.394;2022-10-30T11:51:40;13.58;;;5.37;;
51616;SDS011;37697;52.588;13.394;2022-10-30T11:56:47;13.90;;;4.47;;
51616;SDS011;37697;52.588;13.394;2022-10-30T12:01:56;10.25;;;4.30;;
51616;SDS011;37697;52.588;13.394;2022-10-30T12:12:32;9.20;;;4.40;;
51616;SDS011;37697;52.588;13.394;2022-10-30T12:17:38;15.18;;;4.70;;
51616;SDS011;37697;52.588;13.394;2022-10-30T12:22:40;9.48;;;4.10;;
51616;SDS011;37697;52.588;13.394;2022-10-30T12:27:41;12.25;;;5.10;;
51616;SDS011;37697;52.588;13.394;2022-10-30T12:37:52;10.72;;;4.72;;
51616;SDS011;37697;52.588;13.394;2022-10-30T12:42:57;8.30;;;3.80;;
51616;SDS011;37697;52.588;13.394;2022-10-30T12:48:27;9.90;;;4.62;;
51616;SDS011;37697;52.588;13.394;2022-10-30T12:53:41;13.15;;;4.37;;
51616;SDS011;37697;52.588;13.394;2022-10-30T12:58:52;10.50;;;4.05;;
51616;SDS011;37697;52.588;13.394;2022-10-30T13:04:31;14.45;;;5.12;;
51616;SDS011;37697;52.588;13.394;2022-10-30T13:09:39;12.07;;;4.87;;
51616;SDS011;37697;52.588;13.394;2022-10-30T13:14:56;12.10;;;4.42;;
51616;SDS011;37697;52.588;13.394;2022-10-30T13:19:57;10.63;;;4.35;;
51616;SDS011;37697;52.588;13.394;2022-10-30T13:25:21;14.83;;;4.20;;
51616;SDS011;37697;52.588;13.394;2022-10-30T13:30:45;12.60;;;4.25;;
51616;SDS011;37697;52.588;13.394;2022-10-30T13:52:05;9.68;;;4.00;;
51616;SDS011;37697;52.588;13.394;2022-10-30T14:08:40;11.70;;;4.10;;
51616;SDS011;37697;52.588;13.394;2022-10-30T14:14:43;11.35;;;4.35;;
51616;SDS011;37697;52.588;13.394;2022-10-30T14:19:14;11.48;;;4.40;;
51616;SDS011;37697;52.588;13.394;2022-10-30T14:39:56;11.12;;;4.15;;
51616;SDS011;37697;52.588;13.394;2022-10-30T15:06:53;11.97;;;5.28;;
51616;SDS011;37697;52.588;13.394;2022-10-30T15:12:07;10.98;;;4.22;;
51616;SDS011;37697;52.588;13.394;2022-10-30T15:22:32;11.50;;;4.70;;
51616;SDS011;37697;52.588;13.394;2022-10-30T15:27:34;9.83;;;4.47;;
51616;SDS011;37697;52.588;13.394;2022-10-30T15:32:39;8.40;;;4.40;;
51616;SDS011;37697;52.588;13.394;2022-10-30T15:37:54;8.85;;;4.12;;
51616;SDS011;37697;52.588;13.394;2022-10-30T15:43:00;10.20;;;4.65;;
51616;SDS011;37697;52.588;13.394;2022-10-30T15:48:08;7.78;;;4.70;;
51616;SDS011;37697;52.588;13.394;2022-10-30T15:53:24;10.07;;;4.40;;
51616;SDS011;37697;52.588;13.394;2022-10-30T15:58:29;9.78;;;4.50;;
51616;SDS011;37697;52.588;13.394;2022-10-30T16:03:31;9.20;;;4.47;;
51616;SDS011;37697;52.588;13.394;2022-10-30T16:08:32;8.05;;;4.55;;
51616;SDS011;37697;52.588;13.394;2022-10-30T16:13:43;9.50;;;4.67;;
51616;SDS011;37697;52.588;13.394;2022-10-30T16:18:44;10.08;;;5.40;;
51616;SDS011;37697;52.588;13.394;2022-10-30T16:28:52;12.00;;;5.25;;
51616;SDS011;37697;52.588;13.394;2022-10-30T16:33:53;10.23;;;5.53;;
51616;SDS011;37697;52.588;13.394;2022-10-30T16:49:27;10.15;;;5.60;;
51616;SDS011;37697;52.588;13.394;2022-10-30T16:54:32;8.48;;;5.37;;
51616;SDS011;37697;52.588;13.394;2022-10-30T16:59:37;7.35;;;5.25;;
51616;SDS011;37697;52.588;13.394;2022-10-30T17:04:45;9.95;;;5.65;;
51616;SDS011;37697;52.588;13.394;2022-10-30T17:09:50;9.93;;;6.45;;
51616;SDS011;37697;52.588;13.394;2022-10-30T17:14:53;9.25;;;5.85;;
51616;SDS011;37697;52.588;13.394;2022-10-30T17:25:30;9.73;;;6.45;;
51616;SDS011;37697;52.588;13.394;2022-10-30T17:30:39;9.75;;;6.25;;
51616;SDS011;37697;52.588;13.394;2022-10-30T17:35:42;11.30;;;6.65;;
51616;SDS011;37697;52.588;13.394;2022-10-30T17:40:42;13.83;;;8.43;;
51616;SDS011;37697;52.588;13.394;2022-10-30T17:45:43;12.10;;;7.40;;
51616;SDS011;37697;52.588;13.394;2022-10-30T17:50:45;17.02;;;8.50;;
51616;SDS011;37697;52.588;13.394;2022-10-30T18:00:50;13.45;;;7.72;;
51616;SDS011;37697;52.588;13.394;2022-10-30T18:10:52;13.28;;;8.08;;
51616;SDS011;37697;52.588;13.394;2022-10-30T18:15:55;14.70;;;8.40;;
51616;SDS011;37697;52.588;13.394;2022-10-30T18:20:57;13.75;;;8.53;;
51616;SDS011;37697;52.588;13.394;2022-10-30T18:30:59;17.95;;;10.63;;
51616;SDS011;37697;52.588;13.394;2022-10-30T18:36:00;16.65;;;11.00;;
51616;SDS011;37697;52.588;13.394;2022-10-30T18:41:00;18.20;;;11.47;;
51616;SDS011;37697;52.588;13.394;2022-10-30T18:46:02;17.23;;;11.30;;
51616;SDS011;37697;52.588;13.394;2022-10-30T18:51:03;18.17;;;11.60;;
51616;SDS011;37697;52.588;13.394;2022-10-30T18:56:10;15.65;;;11.57;;
51616;SDS011;37697;52.588;13.394;2022-10-30T19:01:15;17.85;;;12.35;;
51616;SDS011;37697;52.588;13.394;2022-10-30T19:06:18;17.10;;;13.13;;
51616;SDS011;37697;52.588;13.394;2022-10-30T19:11:22;16.27;;;12.78;;
51616;SDS011;37697;52.588;13.394;2022-10-30T19:16:22;17.80;;;12.60;;
51616;SDS011;37697;52.588;13.394;2022-10-30T19:21:26;17.75;;;13.53;;
51616;SDS011;37697;52.588;13.394;2022-10-30T19:26:27;18.00;;;13.53;;
51616;SDS011;37697;52.588;13.394;2022-10-30T19:31:28;21.07;;;15.18;;
51616;SDS011;37697;52.588;13.394;2022-10-30T19:36:30;22.80;;;15.60;;
51616;SDS011;37697;52.588;13.394;2022-10-30T19:41:35;23.60;;;15.10;;
51616;SDS011;37697;52.588;13.394;2022-10-30T19:46:36;19.90;;;14.18;;
51616;SDS011;37697;52.588;13.394;2022-10-30T19:51:37;18.37;;;15.28;;
51616;SDS011;37697;52.588;13.394;2022-10-30T19:56:38;22.90;;;16.27;;
51616;SDS011;37697;52.588;13.394;2022-10-30T20:01:41;21.37;;;16.15;;
51616;SDS011;37697;52.588;13.394;2022-10-30T20:06:43;20.68;;;16.05;;
51616;SDS011;37697;52.588;13.394;2022-10-30T20:11:44;22.32;;;16.82;;
51616;SDS011;37697;52.588;13.394;2022-10-30T20:16:45;20.20;;;17.20;;
51616;SDS011;37697;52.588;13.394;2022-10-30T20:21:45;25.10;;;19.15;;
51616;SDS011;37697;52.588;13.394;2022-10-30T20:26:46;25.10;;;18.47;;
51616;SDS011;37697;52.588;13.394;2022-10-30T20:31:48;26.80;;;18.10;;
51616;SDS011;37697;52.588;13.394;2022-10-30T20:36:50;25.80;;;19.17;;
51616;SDS011;37697;52.588;13.394;2022-10-30T20:41:50;24.97;;;18.63;;
51616;SDS011;37697;52.588;13.394;2022-10-30T20:46:52;24.00;;;18.75;;
51616;SDS011;37697;52.588;13.394;2022-10-30T20:51:52;24.63;;;20.17;;
51616;SDS011;37697;52.588;13.394;2022-10-30T20:56:53;23.55;;;19.75;;
51616;SDS011;37697;52.588;13.394;2022-10-30T21:01:54;25.90;;;19.80;;
51616;SDS011;37697;52.588;13.394;2022-10-30T21:06:54;29.85;;;20.23;;
51616;SDS011;37697;52.588;13.394;2022-10-30T21:11:55;26.17;;;19.63;;
51616;SDS011;37697;52.588;13.394;2022-10-30T21:16:56;25.40;;;20.17;;
51616;SDS011;37697;52.588;13.394;2022-10-30T21:21:56;26.73;;;21.07;;
51616;SDS011;37697;52.588;13.394;2022-10-30T21:26:57;27.97;;;21.20;;
51616;SDS011;37697;52.588;13.394;2022-10-30T21:31:58;26.47;;;21.97;;
51616;SDS011;37697;52.588;13.394;2022-10-30T21:36:59;28.17;;;23.03;;
51616;SDS011;37697;52.588;13.394;2022-10-30T21:41:59;28.70;;;23.55;;
51616;SDS011;37697;52.588;13.394;2022-10-30T21:47:00;28.57;;;23.37;;
51616;SDS011;37697;52.588;13.394;2022-10-30T21:52:01;28.50;;;23.50;;
51616;SDS011;37697;52.588;13.394;2022-10-30T21:57:02;34.00;;;25.37;;
51616;SDS011;37697;52.588;13.394;2022-10-30T22:02:02;30.83;;;22.20;;
51616;SDS011;37697;52.588;13.394;2022-10-30T22:07:03;32.40;;;23.57;;
51616;SDS011;37697;52.588;13.394;2022-10-30T22:12:04;29.30;;;22.07;;
51616;SDS011;37697;52.588;13.394;2022-10-30T22:17:05;27.93;;;22.07;;
51616;SDS011;37697;52.588;13.394;2022-10-30T22:22:07;26.65;;;21.97;;
51616;SDS011;37697;52.588;13.394;2022-10-30T22:27:08;31.07;;;23.00;;
51616;SDS011;37697;52.588;13.394;2022-10-30T22:32:08;29.47;;;22.67;;
51616;SDS011;37697;52.588;13.394;2022-10-30T22:37:09;35.17;;;23.10;;
51616;SDS011;37697;52.588;13.394;2022-10-30T22:42:10;26.57;;;21.27;;
51616;SDS011;37697;52.588;13.394;2022-10-30T22:47:11;28.77;;;22.73;;
51616;SDS011;37697;52.588;13.394;2022-10-30T22:52:11;27.63;;;22.80;;
51616;SDS011;37697;52.588;13.394;2022-10-30T22:57:12;30.88;;;23.92;;
51616;SDS011;37697;52.588;13.394;2022-10-30T23:02:13;27.32;;;21.85;;
51616;SDS011;37697;52.588;13.394;2022-10-30T23:07:13;28.23;;;24.17;;
51616;SDS011;37697;52.588;13.394;2022-10-30T23:12:15;29.72;;;23.07;;
51616;SDS011;37697;52.588;13.394;2022-10-30T23:17:16;28.43;;;21.57;;
51616;SDS011;37697;52.588;13.394;2022-10-30T23:22:17;29.27;;;23.20;;
51616;SDS011;37697;52.588;13.394;2022-10-30T23:27:18;27.13;;;21.87;;
51616;SDS011;37697;52.588;13.394;2022-10-30T23:32:19;28.55;;;22.32;;
51616;SDS011;37697;52.588;13.394;2022-10-30T23:37:19;26.77;;;21.83;;
51616;SDS011;37697;52.588;13.394;2022-10-30T23:42:21;30.17;;;22.52;;
51616;SDS011;37697;52.588;13.394;2022-10-30T23:47:21;27.48;;;22.27;;
51616;SDS011;37697;52.588;13.394;2022-10-30T23:52:22;27.30;;;21.00;;
51616;SDS011;37697;52.588;13.394;2022-10-30T23:57:23;27.73;;;22.43;;
